Time;durP1;ratioP1;P1;durP2;ratioP2;P2;SDS_P1;SDS_P2;PMS_P1;PMS_P2;Temp;Humidity;BMP_temperature;BMP_pressure;BME280_temperature;BME280_humidity;BME280_pressure;Samples;Min_cycle;Max_cycle;Signal;HPM_P1;HPM_P2
2023/10/09 00:01:26;;;;;;;15.25;5.25;;;;;;;11.22;100.00;99461.75;5021159;28;20080;-53
2023/10/09 00:03:55;;;;;;;17.63;5.55;;;;;;;11.23;100.00;99468.84;5022794;28;20088;-53
2023/10/09 00:06:30;;;;;;;11.50;5.50;;;;;;;11.17;100.00;99468.56;5029623;28;20438;-53
2023/10/09 00:08:56;;;;;;;21.17;9.70;;;;;;;11.15;100.00;99465.22;5021630;28;20081;-53
2023/10/09 00:11:26;;;;;;;12.15;5.68;;;;;;;11.17;100.00;99460.44;5030042;28;20009;-53
2023/10/09 00:13:57;;;;;;;12.20;5.43;;;;;;;11.19;100.00;99452.16;5024514;28;20109;-53
2023/10/09 00:16:32;;;;;;;12.32;5.90;;;;;;;11.14;100.00;99458.13;5021672;28;20049;-53
2023/10/09 00:19:14;;;;;;;10.95;5.00;;;;;;;11.16;100.00;99447.94;5023253;28;20022;-53
2023/10/09 00:21:46;;;;;;;11.15;5.10;;;;;;;11.08;100.00;99448.06;5038498;28;20061;-53
2023/10/09 00:24:24;;;;;;;9.32;4.82;;;;;;;11.08;100.00;99439.94;5020848;28;20029;-54
2023/10/09 00:27:11;;;;;;;11.55;4.03;;;;;;;11.13;100.00;99437.50;5027626;28;20029;-54
2023/10/09 00:29:44;;;;;;;10.48;5.07;;;;;;;11.05;100.00;99434.06;5014910;28;20033;-53
2023/10/09 00:32:26;;;;;;;12.95;4.35;;;;;;;11.07;100.00;99449.09;5018276;28;20129;-53
2023/10/09 00:34:52;;;;;;;17.63;5.45;;;;;;;11.04;100.00;99433.22;5024354;28;20025;-54
2023/10/09 00:37:22;;;;;;;13.63;5.97;;;;;;;11.10;100.00;99440.56;5018164;28;20525;-54
2023/10/09 00:39:55;;;;;;;14.52;5.03;;;;;;;11.15;100.00;99432.72;5020878;28;20092;-54
2023/10/09 00:42:29;;;;;;;12.88;5.30;;;;;;;11.18;100.00;99436.91;5031660;28;20040;-54
2023/10/09 00:44:56;;;;;;;17.00;5.35;;;;;;;11.19;100.00;99439.44;5025763;28;20079;-54
2023/10/09 00:47:26;;;;;;;10.65;4.60;;;;;;;11.15;100.00;99432.72;5054951;23;20022;-70
2023/10/09 00:49:59;;;;;;;10.98;5.50;;;;;;;11.25;100.00;99434.28;5043513;28;20031;-71
2023/10/09 00:52:43;;;;;;;10.98;5.40;;;;;;;11.28;100.00;99436.59;5045707;28;20029;-71
2023/10/09 00:55:20;;;;;;;13.05;5.38;;;;;;;11.30;100.00;99437.25;5044295;28;20321;-71
2023/10/09 00:57:57;;;;;;;20.33;5.38;;;;;;;11.28;100.00;99426.59;5034766;28;20045;-71
2023/10/09 01:00:32;;;;;;;12.88;5.03;;;;;;;11.26;100.00;99417.00;5025248;28;20033;-71
2023/10/09 01:03:13;;;;;;;14.95;5.57;;;;;;;11.25;100.00;99418.03;5023707;28;20093;-71
2023/10/09 01:05:40;;;;;;;22.90;5.25;;;;;;;11.29;100.00;99416.59;5024312;28;20033;-71
2023/10/09 01:08:24;;;;;;;10.60;4.80;;;;;;;11.30;100.00;99410.16;5027289;28;20311;-71
2023/10/09 01:10:56;;;;;;;8.90;4.40;;;;;;;11.29;100.00;99416.59;5022206;28;20013;-71
2023/10/09 01:13:38;;;;;;;9.85;4.20;;;;;;;11.24;100.00;99400.09;5028857;28;20036;-71
2023/10/09 01:16:05;;;;;;;12.23;4.72;;;;;;;11.28;100.00;99391.38;5024919;28;20025;-71
2023/10/09 01:18:36;;;;;;;11.82;4.63;;;;;;;11.35;100.00;99397.72;5023605;28;20040;-72
2023/10/09 01:21:02;;;;;;;10.25;4.07;;;;;;;11.37;100.00;99405.63;5018676;28;20084;-71
2023/10/09 01:23:29;;;;;;;15.82;4.72;;;;;;;11.40;100.00;99402.56;5027658;28;20053;-71
2023/10/09 01:25:55;;;;;;;9.32;3.97;;;;;;;11.40;100.00;99402.56;5024644;28;20026;-72
2023/10/09 01:28:20;;;;;;;12.25;5.03;;;;;;;11.47;100.00;99399.91;5023702;28;20345;-71
2023/10/09 01:30:47;;;;;;;10.43;4.07;;;;;;;11.51;100.00;99399.31;5022096;28;20049;-71
2023/10/09 01:33:23;;;;;;;7.10;3.70;;;;;;;11.45;100.00;99394.69;5017567;28;20052;-71
2023/10/09 01:35:52;;;;;;;12.63;4.43;;;;;;;11.44;100.00;99387.56;5016166;28;20385;-71
2023/10/09 01:38:18;;;;;;;11.82;4.35;;;;;;;11.39;100.00;99374.59;5022038;28;20279;-71
2023/10/09 01:40:44;;;;;;;10.00;4.10;;;;;;;11.36;100.00;99379.59;5022970;28;20037;-71
2023/10/09 01:43:10;;;;;;;9.32;3.90;;;;;;;11.36;100.00;99371.47;5022726;28;20302;-71
2023/10/09 01:45:46;;;;;;;11.85;3.70;;;;;;;11.35;100.00;99376.03;5024464;28;20029;-71
2023/10/09 01:48:14;;;;;;;10.73;4.10;;;;;;;11.46;100.00;99374.69;5023525;28;20033;-71
2023/10/09 01:50:42;;;;;;;10.82;4.20;;;;;;;11.36;100.00;99374.16;5024620;28;20089;-71
2023/10/09 01:53:08;;;;;;;15.05;4.78;;;;;;;11.29;100.00;99359.72;5024390;28;20222;-72
2023/10/09 01:55:40;;;;;;;8.93;4.45;;;;;;;11.40;100.00;99380.88;5024537;28;20086;-72
2023/10/09 01:58:16;;;;;;;18.90;4.10;;;;;;;11.46;100.00;99371.97;5023078;28;20028;-71
2023/10/09 02:00:43;;;;;;;13.05;4.03;;;;;;;11.48;100.00;99361.78;5024158;28;20034;-71
2023/10/09 02:03:12;;;;;;;10.07;4.57;;;;;;;11.53;100.00;99375.59;5023982;28;20076;-71
2023/10/09 02:05:39;;;;;;;10.40;4.47;;;;;;;11.46;100.00;99366.53;5014595;28;20022;-71
2023/10/09 02:08:05;;;;;;;14.65;5.13;;;;;;;11.22;100.00;99356.13;5021980;28;20072;-71
2023/10/09 02:10:32;;;;;;;14.30;4.78;;;;;;;11.22;100.00;99366.97;5023522;28;20018;-71
2023/10/09 02:13:06;;;;;;;9.23;4.30;;;;;;;11.16;100.00;99365.84;5022549;28;20079;-71
2023/10/09 02:21:12;;;;;;;16.40;4.80;;;;;;;11.21;100.00;99376.94;4999985;28;20040;-71
2023/10/09 02:23:40;;;;;;;12.52;4.20;;;;;;;11.33;100.00;99363.72;5024088;28;20022;-70
2023/10/09 02:26:10;;;;;;;11.77;5.05;;;;;;;11.31;100.00;99363.06;5023860;28;20076;-71
2023/10/09 02:28:36;;;;;;;11.07;4.40;;;;;;;11.34;100.00;99368.09;5023409;28;20040;-70
2023/10/09 02:31:10;;;;;;;10.70;3.80;;;;;;;11.41;100.00;99355.47;5021507;28;20034;-71
2023/10/09 02:33:36;;;;;;;20.88;5.25;;;;;;;11.35;100.00;99356.25;5023810;28;20223;-71
2023/10/09 02:36:05;;;;;;;10.93;4.28;;;;;;;11.39;100.00;99358.34;5023164;28;20033;-71
2023/10/09 02:38:35;;;;;;;10.30;4.82;;;;;;;11.38;100.00;99359.38;5023324;28;20052;-72
2023/10/09 02:43:34;;;;;;;11.63;4.38;;;;;;;11.37;100.00;99348.75;5023520;28;20037;-71
2023/10/09 02:46:13;;;;;;;11.65;4.53;;;;;;;11.31;100.00;99344.13;5018862;28;20022;-71
2023/10/09 02:48:42;;;;;;;13.02;4.40;;;;;;;11.32;100.00;99345.81;5013580;28;20080;-71
2023/10/09 02:51:14;;;;;;;8.65;4.20;;;;;;;11.40;100.00;99342.97;5023121;28;20338;-71
2023/10/09 02:53:40;;;;;;;15.52;4.13;;;;;;;11.40;100.00;99348.38;5023386;28;20068;-71
2023/10/09 02:56:17;;;;;;;10.82;4.35;;;;;;;11.38;100.00;99335.00;5022764;28;20088;-71
2023/10/09 02:58:43;;;;;;;11.48;4.07;;;;;;;11.39;100.00;99341.25;5031081;28;20038;-72
2023/10/09 03:01:13;;;;;;;14.65;4.32;;;;;;;11.41;100.00;99339.19;5031381;28;20025;-71
2023/10/09 03:03:41;;;;;;;13.23;4.63;;;;;;;11.41;100.00;99350.03;5016920;28;20192;-71
2023/10/09 03:06:11;;;;;;;11.43;4.53;;;;;;;11.35;100.00;99350.81;5023039;28;20037;-72
2023/10/09 03:08:37;;;;;;;9.27;4.28;;;;;;;11.28;100.00;99344.50;5018204;28;20024;-72
2023/10/09 03:11:06;;;;;;;17.33;5.05;;;;;;;11.28;100.00;99345.34;5022258;28;20014;-73
2023/10/09 03:13:33;;;;;;;9.70;4.63;;;;;;;11.28;100.00;99342.63;5026924;28;20318;-72
2023/10/09 03:15:58;;;;;;;12.40;4.78;;;;;;;11.36;100.00;99338.94;5019975;28;20322;-72
2023/10/09 03:18:24;;;;;;;11.80;4.38;;;;;;;11.28;100.00;99328.25;5023041;28;20029;-72
2023/10/09 03:20:50;;;;;;;13.52;5.00;;;;;;;11.33;100.00;99334.75;5022916;28;20041;-72
2023/10/09 03:23:15;;;;;;;13.15;4.93;;;;;;;11.31;100.00;99346.81;5021672;28;20029;-71
2023/10/09 03:25:45;;;;;;;13.80;4.25;;;;;;;11.24;100.00;99344.06;5022465;28;20026;-73
2023/10/09 03:28:12;;;;;;;16.88;5.20;;;;;;;11.22;100.00;99339.88;5016742;28;20087;-72
2023/10/09 03:30:40;;;;;;;16.98;4.88;;;;;;;11.18;100.00;99334.81;5027692;28;20040;-72
2023/10/09 03:33:06;;;;;;;16.48;5.07;;;;;;;11.23;100.00;99344.25;5028010;28;20025;-72
2023/10/09 03:35:34;;;;;;;13.55;5.47;;;;;;;11.22;100.00;99348.84;5028778;28;20057;-72
2023/10/09 03:38:00;;;;;;;12.23;4.90;;;;;;;11.22;100.00;99343.41;5020189;28;20022;-72
2023/10/09 03:40:25;;;;;;;14.05;5.22;;;;;;;11.23;100.00;99346.97;5029204;28;20034;-73
2023/10/09 03:42:51;;;;;;;21.88;5.80;;;;;;;11.27;100.00;99343.66;5029580;28;20026;-72
2023/10/09 03:45:27;;;;;;;9.98;4.28;;;;;;;11.33;100.00;99337.47;5029179;28;20032;-71
2023/10/09 03:48:20;;;;;;;11.10;4.28;;;;;;;11.30;100.00;99332.44;5028020;28;20033;-72
2023/10/09 03:50:43;;;;;;;12.00;4.47;;;;;;;11.42;100.00;99330.03;5028945;28;20052;-72
2023/10/09 03:53:11;;;;;;;13.13;4.45;;;;;;;11.46;100.00;99330.50;5026069;28;20037;-71
2023/10/09 03:55:40;;;;;;;10.60;4.38;;;;;;;11.38;100.00;99326.88;5021018;28;20084;-72
2023/10/09 03:58:06;;;;;;;16.27;5.55;;;;;;;11.43;100.00;99311.94;5029410;28;20037;-72
2023/10/09 04:00:40;;;;;;;13.75;4.88;;;;;;;11.44;100.00;99327.13;5026960;28;20334;-73
2023/10/09 04:03:06;;;;;;;11.90;4.13;;;;;;;11.31;100.00;99334.09;5028927;28;20244;-72
2023/10/09 04:05:32;;;;;;;9.07;3.92;;;;;;;11.23;100.00;99314.47;5027750;28;20033;-72
2023/10/09 04:08:02;;;;;;;10.90;4.07;;;;;;;11.20;100.00;99331.94;5035271;28;20033;-72
2023/10/09 04:10:43;;;;;;;14.60;4.40;;;;;;;11.06;100.00;99314.72;5034736;28;20029;-72
2023/10/09 04:13:11;;;;;;;13.38;4.75;;;;;;;11.11;100.00;99333.13;5014880;28;20018;-72
2023/10/09 04:15:37;;;;;;;9.98;5.25;;;;;;;11.07;100.00;99338.06;5029094;28;20025;-72
2023/10/09 04:18:04;;;;;;;12.02;4.57;;;;;;;11.01;100.00;99336.13;5027992;28;20337;-75
2023/10/09 04:23:05;;;;;;;13.87;5.37;;;;;;;11.11;100.00;99339.38;5027810;28;20032;-75
2023/10/09 04:25:45;;;;;;;13.70;5.35;;;;;;;11.13;100.00;99348.13;5009813;28;20204;-73
2023/10/09 04:30:40;;;;;;;;;;;;;;;11.14;100.00;99343.56;5030064;28;20033;-75
2023/10/09 04:38:55;;;;;;;16.75;4.82;;;;;;;11.09;100.00;99348.72;5011590;28;20125;-75
2023/10/09 04:41:34;;;;;;;22.50;5.40;;;;;;;11.05;100.00;99348.25;5023743;28;20033;-75
2023/10/09 05:00:35;;;;;;;12.57;5.60;;;;;;;11.21;100.00;99338.19;5025381;28;20033;-76
2023/10/09 05:03:07;;;;;;;13.75;4.50;;;;;;;11.23;100.00;99331.53;5024114;28;20030;-76
2023/10/09 05:08:28;;;;;;;16.40;4.70;;;;;;;11.29;100.00;99321.78;5019076;28;20036;-76
2023/10/09 05:16:18;;;;;;;12.57;5.32;;;;;;;11.17;100.00;99316.91;5022105;28;20033;-74
2023/10/09 05:18:45;;;;;;;;;;;;;;;11.19;100.00;99328.41;5023525;28;20026;-75
2023/10/09 05:24:26;;;;;;;16.60;4.97;;;;;;;11.11;100.00;99315.00;5024892;28;20026;-74
2023/10/09 05:26:50;;;;;;;13.82;5.07;;;;;;;11.25;100.00;99328.66;5023704;28;20119;-75
2023/10/09 05:29:19;;;;;;;13.10;5.07;;;;;;;11.32;100.00;99324.13;5021644;28;20022;-75
2023/10/09 05:34:36;;;;;;;11.82;5.43;;;;;;;11.31;100.00;99341.41;5020798;28;20080;-74
2023/10/09 05:37:17;;;;;;;8.32;4.53;;;;;;;11.24;100.00;99343.22;5016170;28;20044;-71
2023/10/09 05:46:07;;;;;;;15.85;5.43;;;;;;;11.20;100.00;99348.19;5018013;28;20028;-73
2023/10/09 06:04:19;;;;;;;10.98;4.35;;;;;;;11.51;100.00;99347.84;5028497;23;20044;-74
2023/10/09 06:06:45;;;;;;;10.80;4.32;;;;;;;11.49;100.00;99349.06;5028245;28;20045;-75
2023/10/09 06:11:38;;;;;;;14.27;4.90;;;;;;;11.60;100.00;99351.22;5034827;28;20088;-76
2023/10/09 06:19:08;;;;;;;16.08;5.95;;;;;;;11.59;100.00;99339.56;5036981;28;20035;-73
2023/10/09 06:22:30;;;;;;;14.05;5.28;;;;;;;11.66;100.00;99357.72;5039441;28;20029;-73
2023/10/09 06:24:33;;;;;;;12.45;4.80;;;;;;;11.74;100.00;99349.47;5026190;28;21133;-75
2023/10/09 06:34:52;;;;;;;17.85;4.47;;;;;;;11.92;100.00;99363.41;5040026;28;20376;-79
2023/10/09 06:42:55;;;;;;;16.08;4.88;;;;;;;11.96;100.00;99347.56;5034196;28;20249;-75
2023/10/09 06:47:53;;;;;;;15.93;6.07;;;;;;;11.98;100.00;99349.03;5043821;28;20029;-78
2023/10/09 06:52:57;;;;;;;20.65;5.95;;;;;;;12.12;100.00;99357.25;5043407;28;20094;-71
2023/10/09 06:55:33;;;;;;;15.77;5.00;;;;;;;12.10;100.00;99351.19;5042656;28;20018;-71
2023/10/09 06:58:01;;;;;;;18.92;5.35;;;;;;;12.32;100.00;99357.38;5042027;28;20238;-71
2023/10/09 07:03:12;;;;;;;16.92;5.25;;;;;;;12.55;100.00;99365.19;5042773;28;20040;-75
2023/10/09 07:08:31;;;;;;;20.10;5.72;;;;;;;12.73;100.00;99357.31;5041941;28;20052;-76
2023/10/09 07:11:20;;;;;;;20.65;5.40;;;;;;;12.70;100.00;99338.72;5034229;28;20045;-75
2023/10/09 07:13:52;;;;;;;19.25;4.95;;;;;;;12.84;100.00;99350.47;5042489;28;20033;-76
2023/10/09 07:16:23;;;;;;;13.95;5.30;;;;;;;12.79;100.00;99323.94;5034306;28;20052;-76
2023/10/09 07:18:54;;;;;;;14.18;5.22;;;;;;;13.05;100.00;99342.16;5042331;28;20314;-78
2023/10/09 07:21:27;;;;;;;18.13;5.32;;;;;;;13.22;100.00;99331.72;5041555;28;20033;-77
2023/10/09 07:23:56;;;;;;;20.73;4.95;;;;;;;13.36;100.00;99335.31;5042330;28;20025;-78
2023/10/09 07:26:36;;;;;;;18.42;5.47;;;;;;;13.52;100.00;99331.38;5041638;28;20048;-77
2023/10/09 07:29:16;;;;;;;16.65;5.45;;;;;;;13.72;100.00;99344.94;5058261;28;20021;-80
2023/10/09 07:31:45;;;;;;;;;;;;;;;13.99;100.00;99351.16;5026306;28;20029;-75
2023/10/09 07:36:56;;;;;;;21.63;5.20;;;;;;;14.32;100.00;99323.88;5037870;28;20437;-74
2023/10/09 07:39:22;;;;;;;14.00;4.75;;;;;;;14.25;100.00;99334.81;5040974;28;20026;-74
2023/10/09 07:42:06;;;;;;;15.65;4.10;;;;;;;14.19;100.00;99319.31;5042468;28;20047;-76
2023/10/09 07:44:36;;;;;;;11.90;4.65;;;;;;;14.44;100.00;99333.06;5039974;28;20021;-76
2023/10/09 07:47:18;;;;;;;11.90;4.60;;;;;;;14.37;100.00;99337.69;5039371;28;20044;-76
2023/10/09 07:49:48;;;;;;;15.02;4.70;;;;;;;14.41;100.00;99341.66;5042067;28;20026;-77
2023/10/09 07:52:14;;;;;;;16.35;4.80;;;;;;;14.50;100.00;99338.69;5038163;28;20014;-78
2023/10/09 07:54:49;;;;;;;15.63;5.10;;;;;;;14.55;100.00;99350.63;5039888;28;20022;-81
2023/10/09 07:57:17;;;;;;;14.38;5.00;;;;;;;14.58;100.00;99341.19;5045708;28;20025;-74
2023/10/09 08:00:00;;;;;;;17.40;5.57;;;;;;;14.54;100.00;99329.06;5039507;28;20025;-76
2023/10/09 08:02:31;;;;;;;14.38;4.68;;;;;;;14.79;100.00;99337.34;5041847;28;20021;-77
2023/10/09 08:05:06;;;;;;;16.23;5.32;;;;;;;15.06;100.00;99348.91;5038824;28;20048;-75
2023/10/09 08:07:34;;;;;;;14.15;4.70;;;;;;;15.00;100.00;99331.53;5041067;28;20369;-77
2023/10/09 08:15:20;;;;;;;17.08;4.40;;;;;;;15.54;100.00;99349.19;5035841;28;20021;-74
2023/10/09 08:18:03;;;;;;;20.08;4.70;;;;;;;15.75;100.00;99349.91;5045216;28;20100;-72
2023/10/09 08:20:51;;;;;;;16.17;4.47;;;;;;;16.07;100.00;99344.34;5037234;28;20265;-75
2023/10/09 08:23:29;;;;;;;13.40;4.40;;;;;;;16.29;100.00;99350.19;5039281;28;20025;-75
2023/10/09 08:26:14;;;;;;;17.45;4.50;;;;;;;16.16;100.00;99352.00;5039009;28;20056;-74
2023/10/09 08:28:47;;;;;;;18.65;4.63;;;;;;;16.09;100.00;99347.69;5043944;28;20045;-74
2023/10/09 08:31:34;;;;;;;14.40;4.72;;;;;;;16.11;100.00;99351.88;5043216;28;20087;-73
2023/10/09 08:34:01;;;;;;;19.98;4.13;;;;;;;16.04;100.00;99333.88;5032741;28;20022;-77
2023/10/09 08:36:36;;;;;;;17.55;4.78;;;;;;;16.05;100.00;99351.91;5045515;28;20022;-73
2023/10/09 08:39:15;;;;;;;17.85;4.93;;;;;;;16.03;100.00;99343.13;5045372;28;20052;-74
2023/10/09 08:41:40;;;;;;;23.45;5.13;;;;;;;16.34;100.00;99355.81;5045462;28;20021;-74
2023/10/09 08:44:06;;;;;;;25.77;4.72;;;;;;;16.60;100.00;99351.94;5037668;28;20090;-76
2023/10/09 08:46:33;;;;;;;23.27;5.68;;;;;;;16.66;100.00;99351.00;5037558;28;20089;-75
2023/10/09 08:48:59;;;;;;;19.63;5.30;;;;;;;16.90;100.00;99371.13;5043753;28;20322;-75
2023/10/09 08:51:26;;;;;;;25.17;4.80;;;;;;;17.17;100.00;99360.66;5038894;28;20047;-78
2023/10/09 08:53:52;;;;;;;20.15;4.22;;;;;;;17.45;100.00;99354.56;5036204;28;20057;-77
2023/10/09 08:56:22;;;;;;;17.38;4.30;;;;;;;17.54;100.00;99357.78;5041995;28;20025;-77
2023/10/09 08:58:55;;;;;;;19.92;5.10;;;;;;;17.48;100.00;99354.06;5043643;28;20033;-77
2023/10/09 09:01:21;;;;;;;16.50;4.55;;;;;;;17.45;100.00;99346.34;5039972;28;20026;-77
2023/10/09 09:03:48;;;;;;;22.52;5.22;;;;;;;17.31;100.00;99355.81;5043371;28;20029;-78
2023/10/09 09:06:14;;;;;;;14.98;4.93;;;;;;;17.25;100.00;99349.38;5043516;28;20021;-77
2023/10/09 09:08:40;;;;;;;15.20;5.43;;;;;;;17.28;100.00;99361.75;5043661;28;20092;-77
2023/10/09 09:11:11;;;;;;;21.75;5.00;;;;;;;17.39;100.00;99360.94;5044956;28;20109;-76
2023/10/09 09:14:05;;;;;;;14.80;4.45;;;;;;;17.91;100.00;99382.25;5043134;28;20092;-76
2023/10/09 09:16:35;;;;;;;18.67;5.45;;;;;;;17.90;100.00;99367.72;5058987;28;20333;-76
2023/10/09 09:21:49;;;;;;;13.48;4.80;;;;;;;19.41;100.00;99375.00;5036686;28;20323;-77
2023/10/09 09:26:59;;;;;;;14.23;5.10;;;;;;;21.01;100.00;99359.75;5044086;28;20254;-76
2023/10/09 09:29:54;;;;;;;15.18;4.10;;;;;;;20.65;100.00;99350.28;5044292;28;20028;-76
2023/10/09 09:32:35;;;;;;;13.77;4.18;;;;;;;21.09;100.00;99339.22;5030451;28;20394;-80
2023/10/09 09:35:04;;;;;;;17.13;4.90;;;;;;;21.33;100.00;99356.28;5037817;28;20025;-78
2023/10/09 09:37:31;;;;;;;14.45;5.18;;;;;;;21.81;100.00;99354.50;5042675;28;20017;-74
2023/10/09 09:40:14;;;;;;;20.75;5.28;;;;;;;21.70;100.00;99336.25;5039593;28;20353;-75
2023/10/09 09:42:45;;;;;;;23.85;5.22;;;;;;;22.03;100.00;99338.69;5035066;28;20029;-74
2023/10/09 09:45:11;;;;;;;17.02;4.72;;;;;;;23.04;100.00;99341.41;5042185;28;20021;-75
2023/10/09 09:47:37;;;;;;;22.25;5.03;;;;;;;23.66;100.00;99343.16;5042499;28;20033;-75
2023/10/09 09:50:13;;;;;;;21.15;5.53;;;;;;;24.21;100.00;99344.22;5042929;28;20029;-75
2023/10/09 09:52:38;;;;;;;10.68;3.47;;;;;;;26.41;84.96;99348.38;5042658;28;20021;-75
2023/10/09 09:55:05;;;;;;;24.30;4.60;;;;;;;26.82;79.89;99359.00;5041019;28;20214;-75
2023/10/09 09:57:39;;;;;;;18.35;3.92;;;;;;;27.09;73.35;99347.28;5043448;28;20025;-75
2023/10/09 10:00:08;;;;;;;21.00;4.25;;;;;;;26.79;67.41;99361.56;5041021;28;20228;-76
2023/10/09 10:02:37;;;;;;;;;;;;;;;26.77;64.13;99361.03;5039169;28;20025;-75
2023/10/09 10:05:08;;;;;;;22.45;3.78;;;;;;;25.61;66.19;99356.31;5039562;28;20106;-75
2023/10/09 10:07:42;;;;;;;18.05;3.53;;;;;;;24.33;70.61;99354.16;5043371;28;20038;-76
2023/10/09 10:11:04;;;;;;;16.10;3.70;;;;;;;23.95;75.64;99361.97;5042192;28;20024;-76
2023/10/09 10:13:40;;;;;;;20.65;3.97;;;;;;;23.88;83.52;99358.66;5035807;28;20041;-75
2023/10/09 10:16:19;;;;;;;17.40;3.60;;;;;;;23.96;86.28;99345.09;5035192;28;20033;-75
2023/10/09 10:18:59;;;;;;;;;;;;;;;23.69;84.23;99352.81;5040806;28;20032;-75
2023/10/09 10:21:48;;;;;;;22.33;4.03;;;;;;;23.29;85.49;99347.00;5042076;28;19913;-75
2023/10/09 10:24:28;;;;;;;12.43;4.05;;;;;;;22.85;93.72;99344.66;5042405;28;20087;-75
2023/10/09 10:27:27;;;;;;;24.00;3.72;;;;;;;23.05;98.14;99351.34;5039390;28;20024;-74
2023/10/09 10:30:11;;;;;;;14.70;3.35;;;;;;;22.95;99.63;99343.81;5042228;28;20021;-75
2023/10/09 10:32:51;;;;;;;17.98;3.83;;;;;;;22.90;100.00;99346.59;5055069;28;20025;-75
2023/10/09 10:35:20;;;;;;;20.60;3.88;;;;;;;22.92;100.00;99334.19;5036480;28;20337;-75
2023/10/09 10:38:00;;;;;;;28.40;3.90;;;;;;;22.38;100.00;99329.00;5041924;28;20029;-74
2023/10/09 10:40:40;;;;;;;17.27;3.47;;;;;;;22.37;100.00;99341.09;5037675;28;20018;-74
2023/10/09 10:43:12;;;;;;;24.10;3.97;;;;;;;22.04;100.00;99343.09;5040570;28;20252;-74
2023/10/09 10:45:44;;;;;;;25.17;3.55;;;;;;;22.20;100.00;99357.00;5040726;28;20029;-74
2023/10/09 10:48:37;;;;;;;19.75;3.50;;;;;;;22.29;100.00;99353.47;5042177;28;20088;-74
2023/10/09 10:50:58;;;;;;;16.27;3.10;;;;;;;22.30;100.00;99332.28;5034466;28;20078;-74
2023/10/09 10:53:28;;;;;;;16.25;4.30;;;;;;;22.19;100.00;99331.38;5029610;28;20057;-76
2023/10/09 10:56:17;;;;;;;14.75;3.78;;;;;;;22.33;100.00;99336.41;5037256;28;20091;-74
2023/10/09 11:01:24;;;;;;;20.48;3.80;;;;;;;22.91;100.00;99345.50;5038849;28;20075;-75
2023/10/09 11:03:55;;;;;;;21.75;3.63;;;;;;;23.32;100.00;99351.97;5032485;28;20029;-74
2023/10/09 11:06:37;;;;;;;18.23;3.53;;;;;;;23.38;100.00;99353.63;5033518;28;20032;-74
2023/10/09 11:09:20;;;;;;;23.33;4.03;;;;;;;24.01;100.00;99366.38;5041994;28;20024;-75
2023/10/09 11:11:47;;;;;;;19.50;3.38;;;;;;;24.37;95.54;99353.31;5033598;28;20032;-77
2023/10/09 11:14:23;;;;;;;14.40;3.45;;;;;;;24.59;90.82;99363.22;5040691;28;20071;-82
2023/10/09 11:16:49;;;;;;;15.48;3.53;;;;;;;24.49;89.78;99356.59;5038646;28;20214;-75
2023/10/09 11:19:31;;;;;;;30.83;4.38;;;;;;;24.17;96.64;99358.88;5042389;28;20074;-74
2023/10/09 11:21:59;;;;;;;15.48;3.28;;;;;;;23.22;100.00;99351.94;5033965;28;20032;-77
2023/10/09 11:24:33;;;;;;;22.13;3.55;;;;;;;22.35;100.00;99324.03;5038704;28;20040;-76
2023/10/09 11:27:05;;;;;;;18.58;3.58;;;;;;;22.27;100.00;99336.38;5041438;28;20314;-79
2023/10/09 11:32:22;;;;;;;17.42;3.40;;;;;;;21.76;100.00;99322.25;5034561;28;20311;-78
2023/10/09 11:34:53;;;;;;;;;;;;;;;21.48;100.00;99312.38;5040104;28;20052;-81
2023/10/09 11:39:55;;;;;;;19.55;4.00;;;;;;;21.22;100.00;99309.38;5032136;28;20342;-78
2023/10/09 11:45:04;;;;;;;20.73;4.22;;;;;;;21.89;100.00;99329.22;5040961;28;20105;-77
2023/10/09 11:47:45;;;;;;;20.95;4.30;;;;;;;22.09;100.00;99315.59;5041700;28;20033;-77
2023/10/09 11:50:17;;;;;;;22.17;4.22;;;;;;;22.39;100.00;99319.63;5044472;28;20052;-80
2023/10/09 11:53:08;;;;;;;11.73;3.33;;;;;;;22.71;100.00;99321.41;5043415;28;20100;-74
2023/10/09 11:55:34;;;;;;;18.77;3.33;;;;;;;22.64;100.00;99320.84;5036819;28;20139;-72
2023/10/09 11:57:59;;;;;;;11.07;3.30;;;;;;;22.74;100.00;99327.22;5048742;28;20250;-78
2023/10/09 12:00:30;;;;;;;14.45;3.50;;;;;;;22.82;100.00;99312.09;5044902;28;20028;-74
2023/10/09 12:02:56;;;;;;;18.27;3.70;;;;;;;22.88;100.00;99324.78;5047996;28;20074;-73
2023/10/09 12:05:22;;;;;;;17.33;4.13;;;;;;;22.81;100.00;99326.13;5052089;28;20041;-74
2023/10/09 12:07:57;;;;;;;22.98;4.22;;;;;;;22.94;100.00;99331.97;5046034;28;20053;-73
2023/10/09 12:10:25;;;;;;;9.68;3.60;;;;;;;23.19;100.00;99324.91;5041164;28;20199;-74
2023/10/09 12:12:57;;;;;;;15.20;3.97;;;;;;;23.77;100.00;99322.72;5045560;28;20028;-74
2023/10/09 12:15:23;;;;;;;25.17;4.15;;;;;;;24.27;100.00;99315.44;5045235;28;20037;-74
2023/10/09 12:17:49;;;;;;;18.23;4.13;;;;;;;25.95;98.75;99268.44;5045503;28;20341;-75
2023/10/09 12:20:30;;;;;;;15.70;3.88;;;;;;;26.51;81.45;99239.19;5044334;28;20028;-74
2023/10/09 12:23:04;;;;;;;20.48;4.22;;;;;;;25.99;82.79;99239.00;5048302;28;20086;-72
2023/10/09 12:25:31;;;;;;;18.17;4.00;;;;;;;25.58;83.85;99241.34;5037161;28;20033;-74
2023/10/09 12:27:57;;;;;;;16.00;3.97;;;;;;;24.84;90.70;99232.22;5044224;28;20032;-73
2023/10/09 12:30:26;;;;;;;18.73;4.25;;;;;;;25.15;84.18;99252.19;5041346;28;20065;-74
2023/10/09 12:32:58;;;;;;;;;;;;;;;25.95;79.11;99249.03;5034249;28;20060;-76
2023/10/09 12:35:27;;;;;;;15.65;3.63;;;;;;;26.69;73.90;99245.91;5037790;22;19929;-74
2023/10/09 12:37:58;;;;;;;18.08;3.65;;;;;;;26.89;71.07;99233.72;5009284;28;20045;-74
2023/10/09 12:40:30;;;;;;;14.90;3.50;;;;;;;26.90;71.17;99243.69;5006358;28;20034;-74
2023/10/09 12:42:58;;;;;;;12.90;3.55;;;;;;;26.93;69.94;99242.25;5002062;28;20030;-75
2023/10/09 12:45:32;;;;;;;16.23;3.50;;;;;;;27.93;68.18;99237.28;4998708;28;20033;-74
2023/10/09 12:48:03;;;;;;;19.83;3.58;;;;;;;28.82;63.44;99233.19;4986451;28;20035;-75
2023/10/09 12:50:33;;;;;;;16.92;3.78;;;;;;;28.45;63.75;99218.41;4983868;28;20018;-74
2023/10/09 12:53:02;;;;;;;18.77;3.42;;;;;;;30.14;59.83;99205.84;4982195;28;20058;-74
2023/10/09 12:55:34;;;;;;;;;;;;;;;29.67;59.21;99220.25;4976410;28;20028;-74
2023/10/09 12:58:01;;;;;;;14.55;3.47;;;;;;;28.59;61.34;99230.34;4983727;28;19917;-74
2023/10/09 13:00:27;;;;;;;19.98;3.83;;;;;;;27.72;63.45;99234.84;4984982;28;20094;-74
2023/10/09 13:02:52;;;;;;;23.05;3.28;;;;;;;26.71;66.70;99245.63;4983494;28;20026;-74
2023/10/09 13:05:27;;;;;;;16.35;3.15;;;;;;;27.99;64.94;99244.38;4985556;28;20020;-73
2023/10/09 13:07:55;;;;;;;17.58;3.35;;;;;;;30.84;58.26;99239.53;4989234;28;20027;-73
2023/10/09 13:10:24;;;;;;;18.23;2.77;;;;;;;31.46;55.84;99227.22;4977524;28;20354;-73
2023/10/09 13:12:55;;;;;;;18.02;4.25;;;;;;;31.51;55.53;99229.84;4980816;28;20277;-74
2023/10/09 13:15:21;;;;;;;18.17;3.80;;;;;;;32.16;52.85;99233.44;5000397;28;20288;-73
2023/10/09 13:17:47;;;;;;;18.55;3.63;;;;;;;31.73;52.44;99221.22;4983672;28;20026;-75
2023/10/09 13:20:15;;;;;;;17.20;3.95;;;;;;;30.21;53.80;99220.16;4984268;28;20079;-75
2023/10/09 13:22:42;;;;;;;15.95;3.22;;;;;;;30.16;54.12;99228.69;4983086;28;20022;-74
2023/10/09 13:25:24;;;;;;;16.45;3.47;;;;;;;30.53;53.59;99221.75;4980220;28;20107;-74
2023/10/09 13:27:50;;;;;;;16.52;3.65;;;;;;;32.50;51.79;99224.88;4984120;28;20271;-74
2023/10/09 13:30:23;;;;;;;16.38;3.10;;;;;;;32.50;49.96;99222.06;4983903;28;20224;-76
2023/10/09 13:32:49;;;;;;;15.68;2.90;;;;;;;32.70;49.13;99217.66;4981210;28;20102;-75
2023/10/09 13:35:17;;;;;;;13.15;3.45;;;;;;;32.19;49.41;99215.97;4978887;28;20026;-75
2023/10/09 13:37:44;;;;;;;15.40;3.03;;;;;;;30.03;50.98;99208.13;4980344;28;20090;-75
2023/10/09 13:40:11;;;;;;;17.25;3.45;;;;;;;29.41;53.27;99211.69;4983786;28;20038;-75
2023/10/09 13:42:37;;;;;;;16.45;3.42;;;;;;;28.95;55.51;99209.19;4982972;28;20022;-75
2023/10/09 13:45:15;;;;;;;16.63;3.17;;;;;;;28.55;57.24;99212.63;4974755;28;20026;-75
2023/10/09 13:47:45;;;;;;;18.83;3.75;;;;;;;29.24;56.00;99194.88;4973535;28;20033;-75
2023/10/09 13:50:10;;;;;;;19.05;3.80;;;;;;;29.27;53.73;99205.41;4983726;28;20372;-75